sensor_id;sensor_type;location;lat;lon;timestamp;P1;durP1;ratioP1;P2;durP2;ratioP2
24157;SDS011;12316;50.904;4.200;2023-02-15T00:01:37;71.72;;;41.65;;
24157;SDS011;12316;50.904;4.200;2023-02-15T00:04:04;76.22;;;41.95;;
24157;SDS011;12316;50.904;4.200;2023-02-15T00:06:31;74.05;;;42.97;;
24157;SDS011;12316;50.904;4.200;2023-02-15T00:08:57;68.53;;;41.53;;
24157;SDS011;12316;50.904;4.200;2023-02-15T00:11:23;73.15;;;41.53;;
24157;SDS011;12316;50.904;4.200;2023-02-15T00:14:24;69.65;;;40.33;;
24157;SDS011;12316;50.904;4.200;2023-02-15T00:16:50;70.05;;;40.83;;
24157;SDS011;12316;50.904;4.200;2023-02-15T00:19:18;72.97;;;43.10;;
24157;SDS011;12316;50.904;4.200;2023-02-15T00:21:45;78.70;;;44.80;;
24157;SDS011;12316;50.904;4.200;2023-02-15T00:24:12;70.93;;;40.92;;
24157;SDS011;12316;50.904;4.200;2023-02-15T00:26:40;66.25;;;39.00;;
24157;SDS011;12316;50.904;4.200;2023-02-15T00:29:06;70.82;;;40.30;;
24157;SDS011;12316;50.904;4.200;2023-02-15T00:31:32;74.97;;;44.97;;
24157;SDS011;12316;50.904;4.200;2023-02-15T00:34:02;80.97;;;44.40;;
24157;SDS011;12316;50.904;4.200;2023-02-15T00:36:32;77.95;;;43.88;;
24157;SDS011;12316;50.904;4.200;2023-02-15T00:38:58;74.47;;;44.30;;
24157;SDS011;12316;50.904;4.200;2023-02-15T00:41:24;71.82;;;43.75;;
24157;SDS011;12316;50.904;4.200;2023-02-15T00:43:51;74.50;;;43.17;;
24157;SDS011;12316;50.904;4.200;2023-02-15T00:46:16;71.13;;;41.95;;
24157;SDS011;12316;50.904;4.200;2023-02-15T00:48:42;72.05;;;42.70;;
24157;SDS011;12316;50.904;4.200;2023-02-15T00:51:08;71.32;;;40.80;;
24157;SDS011;12316;50.904;4.200;2023-02-15T00:53:33;78.97;;;43.30;;
24157;SDS011;12316;50.904;4.200;2023-02-15T00:55:59;77.57;;;44.35;;
24157;SDS011;12316;50.904;4.200;2023-02-15T00:58:25;83.70;;;44.00;;
24157;SDS011;12316;50.904;4.200;2023-02-15T01:00:50;82.57;;;44.90;;
24157;SDS011;12316;50.904;4.200;2023-02-15T01:03:17;80.50;;;43.15;;
24157;SDS011;12316;50.904;4.200;2023-02-15T01:05:45;63.67;;;40.15;;
24157;SDS011;12316;50.904;4.200;2023-02-15T01:08:12;76.45;;;42.75;;
24157;SDS011;12316;50.904;4.200;2023-02-15T01:10:38;65.40;;;37.95;;
24157;SDS011;12316;50.904;4.200;2023-02-15T01:13:05;66.50;;;37.70;;
24157;SDS011;12316;50.904;4.200;2023-02-15T01:15:30;70.55;;;40.72;;
24157;SDS011;12316;50.904;4.200;2023-02-15T01:17:58;69.53;;;39.50;;
24157;SDS011;12316;50.904;4.200;2023-02-15T01:20:24;66.13;;;36.63;;
24157;SDS011;12316;50.904;4.200;2023-02-15T01:22:52;66.18;;;38.80;;
24157;SDS011;12316;50.904;4.200;2023-02-15T01:25:19;69.88;;;39.17;;
24157;SDS011;12316;50.904;4.200;2023-02-15T01:27:46;70.03;;;40.03;;
24157;SDS011;12316;50.904;4.200;2023-02-15T01:30:13;64.43;;;37.25;;
24157;SDS011;12316;50.904;4.200;2023-02-15T01:32:39;72.57;;;41.13;;
24157;SDS011;12316;50.904;4.200;2023-02-15T01:35:05;74.85;;;42.75;;
24157;SDS011;12316;50.904;4.200;2023-02-15T01:37:31;76.93;;;44.50;;
24157;SDS011;12316;50.904;4.200;2023-02-15T01:39:58;85.95;;;45.33;;
24157;SDS011;12316;50.904;4.200;2023-02-15T01:42:25;82.25;;;45.55;;
24157;SDS011;12316;50.904;4.200;2023-02-15T01:44:52;80.90;;;45.15;;
24157;SDS011;12316;50.904;4.200;2023-02-15T01:50:00;89.20;;;46.55;;
24157;SDS011;12316;50.904;4.200;2023-02-15T01:52:34;84.05;;;46.15;;
24157;SDS011;12316;50.904;4.200;2023-02-15T01:55:05;65.47;;;35.35;;
24157;SDS011;12316;50.904;4.200;2023-02-15T01:57:32;81.90;;;46.13;;
24157;SDS011;12316;50.904;4.200;2023-02-15T01:59:59;74.13;;;43.80;;
24157;SDS011;12316;50.904;4.200;2023-02-15T02:02:27;81.57;;;44.90;;
24157;SDS011;12316;50.904;4.200;2023-02-15T02:04:54;78.60;;;43.60;;
24157;SDS011;12316;50.904;4.200;2023-02-15T02:07:26;85.20;;;45.42;;
24157;SDS011;12316;50.904;4.200;2023-02-15T02:09:54;85.93;;;45.92;;
24157;SDS011;12316;50.904;4.200;2023-02-15T02:12:20;85.85;;;46.72;;
24157;SDS011;12316;50.904;4.200;2023-02-15T02:14:48;85.68;;;45.42;;
24157;SDS011;12316;50.904;4.200;2023-02-15T02:41:28;81.18;;;43.15;;
24157;SDS011;12316;50.904;4.200;2023-02-15T02:44:39;82.53;;;45.00;;
24157;SDS011;12316;50.904;4.200;2023-02-15T02:46:58;88.63;;;46.65;;
24157;SDS011;12316;50.904;4.200;2023-02-15T02:49:36;78.78;;;42.42;;
24157;SDS011;12316;50.904;4.200;2023-02-15T02:52:07;72.70;;;42.17;;
24157;SDS011;12316;50.904;4.200;2023-02-15T02:57:37;75.13;;;41.35;;
24157;SDS011;12316;50.904;4.200;2023-02-15T03:00:07;74.82;;;40.67;;
24157;SDS011;12316;50.904;4.200;2023-02-15T03:02:35;87.88;;;44.05;;
24157;SDS011;12316;50.904;4.200;2023-02-15T03:05:06;81.57;;;43.42;;
24157;SDS011;12316;50.904;4.200;2023-02-15T03:07:36;80.25;;;42.30;;
24157;SDS011;12316;50.904;4.200;2023-02-15T03:10:04;81.35;;;42.85;;
24157;SDS011;12316;50.904;4.200;2023-02-15T03:12:34;75.93;;;42.85;;
24157;SDS011;12316;50.904;4.200;2023-02-15T03:17:46;76.72;;;42.22;;
24157;SDS011;12316;50.904;4.200;2023-02-15T03:20:35;71.75;;;39.88;;
24157;SDS011;12316;50.904;4.200;2023-02-15T03:23:11;83.43;;;43.22;;
24157;SDS011;12316;50.904;4.200;2023-02-15T03:25:46;78.28;;;41.58;;
24157;SDS011;12316;50.904;4.200;2023-02-15T03:28:37;80.88;;;42.75;;
24157;SDS011;12316;50.904;4.200;2023-02-15T03:31:07;80.18;;;42.58;;
24157;SDS011;12316;50.904;4.200;2023-02-15T03:33:35;75.47;;;40.08;;
24157;SDS011;12316;50.904;4.200;2023-02-15T03:39:18;71.03;;;39.03;;
24157;SDS011;12316;50.904;4.200;2023-02-15T03:41:56;79.07;;;41.50;;
24157;SDS011;12316;50.904;4.200;2023-02-15T03:44:28;70.75;;;38.72;;
24157;SDS011;12316;50.904;4.200;2023-02-15T03:47:17;71.07;;;37.63;;
24157;SDS011;12316;50.904;4.200;2023-02-15T03:52:27;78.53;;;40.47;;
24157;SDS011;12316;50.904;4.200;2023-02-15T03:54:54;73.60;;;38.72;;
24157;SDS011;12316;50.904;4.200;2023-02-15T03:57:27;71.47;;;37.63;;
24157;SDS011;12316;50.904;4.200;2023-02-15T04:00:14;80.25;;;40.65;;
24157;SDS011;12316;50.904;4.200;2023-02-15T04:03:12;75.90;;;40.25;;
24157;SDS011;12316;50.904;4.200;2023-02-15T04:06:07;69.28;;;37.50;;
24157;SDS011;12316;50.904;4.200;2023-02-15T04:08:33;80.30;;;40.47;;
24157;SDS011;12316;50.904;4.200;2023-02-15T04:11:17;75.05;;;38.53;;
24157;SDS011;12316;50.904;4.200;2023-02-15T04:13:42;75.63;;;37.85;;
24157;SDS011;12316;50.904;4.200;2023-02-15T04:16:09;78.95;;;40.83;;
24157;SDS011;12316;50.904;4.200;2023-02-15T04:18:36;64.15;;;36.30;;
24157;SDS011;12316;50.904;4.200;2023-02-15T04:21:23;72.00;;;35.97;;
24157;SDS011;12316;50.904;4.200;2023-02-15T04:24:08;70.15;;;36.50;;
24157;SDS011;12316;50.904;4.200;2023-02-15T04:26:53;66.85;;;35.75;;
24157;SDS011;12316;50.904;4.200;2023-02-15T04:29:21;63.90;;;34.75;;
24157;SDS011;12316;50.904;4.200;2023-02-15T04:31:48;63.58;;;33.65;;
24157;SDS011;12316;50.904;4.200;2023-02-15T04:34:14;62.50;;;33.45;;
24157;SDS011;12316;50.904;4.200;2023-02-15T04:36:40;69.15;;;36.38;;
24157;SDS011;12316;50.904;4.200;2023-02-15T04:39:06;72.40;;;37.22;;
24157;SDS011;12316;50.904;4.200;2023-02-15T04:41:32;71.93;;;38.20;;
24157;SDS011;12316;50.904;4.200;2023-02-15T04:43:59;70.25;;;36.78;;
24157;SDS011;12316;50.904;4.200;2023-02-15T04:46:25;66.80;;;36.42;;
24157;SDS011;12316;50.904;4.200;2023-02-15T04:48:52;66.68;;;34.05;;
24157;SDS011;12316;50.904;4.200;2023-02-15T04:51:18;65.13;;;35.28;;
24157;SDS011;12316;50.904;4.200;2023-02-15T04:53:44;66.72;;;36.58;;
24157;SDS011;12316;50.904;4.200;2023-02-15T04:56:09;60.00;;;34.40;;
24157;SDS011;12316;50.904;4.200;2023-02-15T04:58:35;67.57;;;35.55;;
24157;SDS011;12316;50.904;4.200;2023-02-15T05:01:02;64.65;;;34.70;;
24157;SDS011;12316;50.904;4.200;2023-02-15T05:03:28;58.35;;;32.75;;
24157;SDS011;12316;50.904;4.200;2023-02-15T05:05:53;60.47;;;32.53;;
24157;SDS011;12316;50.904;4.200;2023-02-15T05:08:19;57.15;;;32.45;;
24157;SDS011;12316;50.904;4.200;2023-02-15T05:10:44;59.80;;;33.55;;
24157;SDS011;12316;50.904;4.200;2023-02-15T05:13:12;57.55;;;32.53;;
24157;SDS011;12316;50.904;4.200;2023-02-15T05:15:37;52.65;;;31.27;;
24157;SDS011;12316;50.904;4.200;2023-02-15T05:18:03;56.10;;;31.30;;
24157;SDS011;12316;50.904;4.200;2023-02-15T05:20:30;54.97;;;31.35;;
24157;SDS011;12316;50.904;4.200;2023-02-15T05:22:56;54.75;;;31.42;;
24157;SDS011;12316;50.904;4.200;2023-02-15T05:25:21;57.65;;;31.77;;
24157;SDS011;12316;50.904;4.200;2023-02-15T05:28:07;57.40;;;33.03;;
24157;SDS011;12316;50.904;4.200;2023-02-15T05:30:49;57.92;;;33.40;;
24157;SDS011;12316;50.904;4.200;2023-02-15T05:33:23;60.47;;;33.38;;
24157;SDS011;12316;50.904;4.200;2023-02-15T05:35:48;61.33;;;35.30;;
24157;SDS011;12316;50.904;4.200;2023-02-15T05:38:14;59.72;;;32.22;;
24157;SDS011;12316;50.904;4.200;2023-02-15T05:40:39;59.95;;;34.15;;
24157;SDS011;12316;50.904;4.200;2023-02-15T05:43:05;59.65;;;33.78;;
24157;SDS011;12316;50.904;4.200;2023-02-15T05:45:30;63.70;;;34.33;;
24157;SDS011;12316;50.904;4.200;2023-02-15T05:47:56;55.47;;;31.88;;
24157;SDS011;12316;50.904;4.200;2023-02-15T05:50:23;61.63;;;34.08;;
24157;SDS011;12316;50.904;4.200;2023-02-15T05:52:49;63.50;;;35.33;;
24157;SDS011;12316;50.904;4.200;2023-02-15T05:55:14;62.45;;;34.92;;
24157;SDS011;12316;50.904;4.200;2023-02-15T05:57:40;58.17;;;33.25;;
24157;SDS011;12316;50.904;4.200;2023-02-15T06:00:07;55.85;;;31.77;;
24157;SDS011;12316;50.904;4.200;2023-02-15T06:02:35;58.85;;;32.97;;
24157;SDS011;12316;50.904;4.200;2023-02-15T06:05:01;58.03;;;33.15;;
24157;SDS011;12316;50.904;4.200;2023-02-15T06:07:27;62.75;;;33.78;;
24157;SDS011;12316;50.904;4.200;2023-02-15T06:09:53;65.45;;;35.60;;
24157;SDS011;12316;50.904;4.200;2023-02-15T06:12:18;62.95;;;34.83;;
24157;SDS011;12316;50.904;4.200;2023-02-15T06:14:44;65.95;;;36.33;;
24157;SDS011;12316;50.904;4.200;2023-02-15T06:17:09;62.17;;;33.80;;
24157;SDS011;12316;50.904;4.200;2023-02-15T06:19:35;59.17;;;33.72;;
24157;SDS011;12316;50.904;4.200;2023-02-15T06:22:00;59.80;;;33.40;;
24157;SDS011;12316;50.904;4.200;2023-02-15T06:24:26;62.20;;;35.75;;
24157;SDS011;12316;50.904;4.200;2023-02-15T06:26:52;68.03;;;36.33;;
24157;SDS011;12316;50.904;4.200;2023-02-15T06:29:19;61.35;;;34.67;;
24157;SDS011;12316;50.904;4.200;2023-02-15T06:31:45;65.10;;;35.20;;
24157;SDS011;12316;50.904;4.200;2023-02-15T06:34:10;62.70;;;35.90;;
24157;SDS011;12316;50.904;4.200;2023-02-15T06:36:36;69.13;;;36.90;;
24157;SDS011;12316;50.904;4.200;2023-02-15T06:39:02;58.55;;;33.42;;
24157;SDS011;12316;50.904;4.200;2023-02-15T06:41:28;68.22;;;37.42;;
24157;SDS011;12316;50.904;4.200;2023-02-15T06:43:54;60.72;;;34.40;;
24157;SDS011;12316;50.904;4.200;2023-02-15T06:46:19;58.33;;;33.88;;
24157;SDS011;12316;50.904;4.200;2023-02-15T06:48:45;59.45;;;34.30;;
24157;SDS011;12316;50.904;4.200;2023-02-15T06:51:11;56.92;;;32.35;;
24157;SDS011;12316;50.904;4.200;2023-02-15T06:53:36;58.78;;;32.13;;
24157;SDS011;12316;50.904;4.200;2023-02-15T06:56:03;62.33;;;36.28;;
24157;SDS011;12316;50.904;4.200;2023-02-15T06:58:34;64.68;;;35.53;;
24157;SDS011;12316;50.904;4.200;2023-02-15T07:01:02;61.15;;;34.60;;
24157;SDS011;12316;50.904;4.200;2023-02-15T07:03:28;60.53;;;33.60;;
24157;SDS011;12316;50.904;4.200;2023-02-15T07:05:58;57.53;;;32.67;;
24157;SDS011;12316;50.904;4.200;2023-02-15T07:08:24;56.13;;;33.88;;
24157;SDS011;12316;50.904;4.200;2023-02-15T07:10:51;57.85;;;33.35;;
24157;SDS011;12316;50.904;4.200;2023-02-15T07:13:18;64.00;;;35.83;;
24157;SDS011;12316;50.904;4.200;2023-02-15T07:15:45;64.95;;;35.67;;
24157;SDS011;12316;50.904;4.200;2023-02-15T07:18:12;68.80;;;35.97;;
24157;SDS011;12316;50.904;4.200;2023-02-15T07:20:38;68.53;;;36.50;;
24157;SDS011;12316;50.904;4.200;2023-02-15T07:23:06;69.43;;;38.22;;
24157;SDS011;12316;50.904;4.200;2023-02-15T07:25:33;71.57;;;37.20;;
24157;SDS011;12316;50.904;4.200;2023-02-15T07:27:59;68.18;;;37.97;;
24157;SDS011;12316;50.904;4.200;2023-02-15T07:30:26;66.25;;;37.10;;
24157;SDS011;12316;50.904;4.200;2023-02-15T07:32:59;69.93;;;37.90;;
24157;SDS011;12316;50.904;4.200;2023-02-15T07:35:50;75.75;;;38.15;;
24157;SDS011;12316;50.904;4.200;2023-02-15T07:38:17;67.72;;;37.90;;
24157;SDS011;12316;50.904;4.200;2023-02-15T07:40:43;66.18;;;38.92;;
24157;SDS011;12316;50.904;4.200;2023-02-15T07:43:09;70.80;;;38.63;;
24157;SDS011;12316;50.904;4.200;2023-02-15T07:45:35;75.88;;;39.67;;
24157;SDS011;12316;50.904;4.200;2023-02-15T07:48:02;68.93;;;38.15;;
24157;SDS011;12316;50.904;4.200;2023-02-15T07:50:28;69.35;;;38.33;;
24157;SDS011;12316;50.904;4.200;2023-02-15T07:52:54;69.53;;;39.05;;
24157;SDS011;12316;50.904;4.200;2023-02-15T07:55:20;71.40;;;39.55;;
24157;SDS011;12316;50.904;4.200;2023-02-15T07:57:46;74.82;;;41.88;;
24157;SDS011;12316;50.904;4.200;2023-02-15T08:00:15;71.20;;;39.67;;
24157;SDS011;12316;50.904;4.200;2023-02-15T08:02:42;72.65;;;40.60;;
24157;SDS011;12316;50.904;4.200;2023-02-15T08:05:13;53.47;;;29.15;;
24157;SDS011;12316;50.904;4.200;2023-02-15T08:07:39;73.13;;;39.17;;
24157;SDS011;12316;50.904;4.200;2023-02-15T08:10:05;67.50;;;38.33;;
24157;SDS011;12316;50.904;4.200;2023-02-15T08:12:31;68.45;;;38.80;;
24157;SDS011;12316;50.904;4.200;2023-02-15T08:14:56;69.50;;;38.08;;
24157;SDS011;12316;50.904;4.200;2023-02-15T08:17:22;63.38;;;36.88;;
24157;SDS011;12316;50.904;4.200;2023-02-15T08:19:48;71.18;;;39.30;;
24157;SDS011;12316;50.904;4.200;2023-02-15T08:22:14;63.65;;;37.92;;
24157;SDS011;12316;50.904;4.200;2023-02-15T08:24:39;65.85;;;37.42;;
24157;SDS011;12316;50.904;4.200;2023-02-15T08:27:06;69.22;;;39.00;;
24157;SDS011;12316;50.904;4.200;2023-02-15T08:29:33;66.85;;;37.85;;
24157;SDS011;12316;50.904;4.200;2023-02-15T08:32:04;70.40;;;38.53;;
24157;SDS011;12316;50.904;4.200;2023-02-15T08:34:33;67.88;;;39.15;;
24157;SDS011;12316;50.904;4.200;2023-02-15T08:37:01;66.50;;;38.42;;
24157;SDS011;12316;50.904;4.200;2023-02-15T08:39:26;71.65;;;39.08;;
24157;SDS011;12316;50.904;4.200;2023-02-15T08:41:52;67.72;;;38.15;;
24157;SDS011;12316;50.904;4.200;2023-02-15T08:44:18;67.60;;;39.22;;
24157;SDS011;12316;50.904;4.200;2023-02-15T08:46:45;68.47;;;37.65;;
24157;SDS011;12316;50.904;4.200;2023-02-15T08:49:12;65.50;;;37.33;;
24157;SDS011;12316;50.904;4.200;2023-02-15T08:51:41;65.78;;;37.53;;
24157;SDS011;12316;50.904;4.200;2023-02-15T08:54:08;61.72;;;37.15;;
24157;SDS011;12316;50.904;4.200;2023-02-15T08:56:36;62.40;;;37.00;;
24157;SDS011;12316;50.904;4.200;2023-02-15T08:59:03;59.20;;;36.13;;
24157;SDS011;12316;50.904;4.200;2023-02-15T09:01:32;56.33;;;34.78;;
24157;SDS011;12316;50.904;4.200;2023-02-15T09:04:00;59.60;;;35.83;;
24157;SDS011;12316;50.904;4.200;2023-02-15T09:06:29;61.75;;;36.38;;
24157;SDS011;12316;50.904;4.200;2023-02-15T09:08:55;60.53;;;35.95;;
24157;SDS011;12316;50.904;4.200;2023-02-15T09:11:22;59.30;;;34.53;;
24157;SDS011;12316;50.904;4.200;2023-02-15T09:13:54;54.30;;;33.92;;
24157;SDS011;12316;50.904;4.200;2023-02-15T09:16:20;54.70;;;34.53;;
24157;SDS011;12316;50.904;4.200;2023-02-15T09:18:47;55.22;;;32.78;;
24157;SDS011;12316;50.904;4.200;2023-02-15T09:21:16;58.30;;;34.30;;
24157;SDS011;12316;50.904;4.200;2023-02-15T09:23:48;51.08;;;32.08;;
24157;SDS011;12316;50.904;4.200;2023-02-15T09:26:16;51.65;;;32.53;;
24157;SDS011;12316;50.904;4.200;2023-02-15T09:28:45;49.35;;;31.05;;
24157;SDS011;12316;50.904;4.200;2023-02-15T09:31:15;48.15;;;30.58;;
24157;SDS011;12316;50.904;4.200;2023-02-15T09:33:42;53.95;;;31.45;;
24157;SDS011;12316;50.904;4.200;2023-02-15T09:38:46;48.78;;;29.58;;
24157;SDS011;12316;50.904;4.200;2023-02-15T09:46:37;48.92;;;30.90;;
24157;SDS011;12316;50.904;4.200;2023-02-15T09:49:17;49.50;;;29.90;;
24157;SDS011;12316;50.904;4.200;2023-02-15T09:57:50;50.30;;;30.83;;
24157;SDS011;12316;50.904;4.200;2023-02-15T10:00:58;53.05;;;30.35;;
24157;SDS011;12316;50.904;4.200;2023-02-15T10:09:02;50.85;;;30.50;;
24157;SDS011;12316;50.904;4.200;2023-02-15T10:27:54;50.38;;;30.15;;
24157;SDS011;12316;50.904;4.200;2023-02-15T10:33:20;45.28;;;28.70;;
24157;SDS011;12316;50.904;4.200;2023-02-15T10:38:58;45.20;;;29.33;;
24157;SDS011;12316;50.904;4.200;2023-02-15T10:52:45;48.55;;;29.17;;
24157;SDS011;12316;50.904;4.200;2023-02-15T11:06:07;46.05;;;28.58;;
24157;SDS011;12316;50.904;4.200;2023-02-15T11:08:38;43.78;;;28.17;;
24157;SDS011;12316;50.904;4.200;2023-02-15T11:11:13;43.15;;;27.90;;
24157;SDS011;12316;50.904;4.200;2023-02-15T11:13:48;46.97;;;27.73;;
24157;SDS011;12316;50.904;4.200;2023-02-15T11:16:20;45.28;;;28.00;;
24157;SDS011;12316;50.904;4.200;2023-02-15T11:18:54;43.97;;;27.60;;
24157;SDS011;12316;50.904;4.200;2023-02-15T11:21:26;47.33;;;28.10;;
24157;SDS011;12316;50.904;4.200;2023-02-15T11:29:27;50.20;;;29.67;;
24157;SDS011;12316;50.904;4.200;2023-02-15T11:31:55;45.17;;;28.80;;
24157;SDS011;12316;50.904;4.200;2023-02-15T11:34:29;43.17;;;28.60;;
24157;SDS011;12316;50.904;4.200;2023-02-15T11:37:07;45.28;;;28.85;;
24157;SDS011;12316;50.904;4.200;2023-02-15T11:39:36;43.50;;;27.98;;
24157;SDS011;12316;50.904;4.200;2023-02-15T11:42:04;49.90;;;29.75;;
24157;SDS011;12316;50.904;4.200;2023-02-15T11:44:39;42.17;;;28.73;;
24157;SDS011;12316;50.904;4.200;2023-02-15T11:47:12;45.08;;;28.48;;
24157;SDS011;12316;50.904;4.200;2023-02-15T11:49:38;48.15;;;29.30;;
24157;SDS011;12316;50.904;4.200;2023-02-15T11:52:06;42.05;;;28.95;;
24157;SDS011;12316;50.904;4.200;2023-02-15T11:54:36;46.03;;;30.10;;
24157;SDS011;12316;50.904;4.200;2023-02-15T11:57:11;45.42;;;28.77;;
24157;SDS011;12316;50.904;4.200;2023-02-15T11:59:37;45.03;;;29.90;;
24157;SDS011;12316;50.904;4.200;2023-02-15T12:02:15;46.08;;;29.38;;
24157;SDS011;12316;50.904;4.200;2023-02-15T12:04:43;43.58;;;29.20;;
24157;SDS011;12316;50.904;4.200;2023-02-15T12:07:30;44.70;;;29.98;;
24157;SDS011;12316;50.904;4.200;2023-02-15T12:10:05;44.97;;;28.20;;
24157;SDS011;12316;50.904;4.200;2023-02-15T12:12:42;45.67;;;29.45;;
24157;SDS011;12316;50.904;4.200;2023-02-15T12:15:09;44.63;;;28.95;;
24157;SDS011;12316;50.904;4.200;2023-02-15T12:17:40;45.63;;;29.45;;
24157;SDS011;12316;50.904;4.200;2023-02-15T12:22:39;47.22;;;30.98;;
24157;SDS011;12316;50.904;4.200;2023-02-15T12:25:20;45.08;;;29.73;;
24157;SDS011;12316;50.904;4.200;2023-02-15T12:30:56;44.15;;;29.60;;
24157;SDS011;12316;50.904;4.200;2023-02-15T12:33:30;45.15;;;30.42;;
24157;SDS011;12316;50.904;4.200;2023-02-15T12:35:57;44.42;;;29.20;;
24157;SDS011;12316;50.904;4.200;2023-02-15T12:39:02;45.63;;;29.67;;
24157;SDS011;12316;50.904;4.200;2023-02-15T12:41:29;44.10;;;29.55;;
24157;SDS011;12316;50.904;4.200;2023-02-15T12:44:17;44.55;;;28.95;;
24157;SDS011;12316;50.904;4.200;2023-02-15T12:47:30;44.53;;;29.83;;
24157;SDS011;12316;50.904;4.200;2023-02-15T12:49:43;45.05;;;29.27;;
24157;SDS011;12316;50.904;4.200;2023-02-15T12:54:45;45.83;;;30.48;;
24157;SDS011;12316;50.904;4.200;2023-02-15T13:00:04;48.80;;;30.73;;
24157;SDS011;12316;50.904;4.200;2023-02-15T13:02:53;47.08;;;29.80;;
24157;SDS011;12316;50.904;4.200;2023-02-15T13:05:22;46.67;;;29.55;;
24157;SDS011;12316;50.904;4.200;2023-02-15T13:08:17;45.17;;;30.35;;
24157;SDS011;12316;50.904;4.200;2023-02-15T13:10:56;43.05;;;30.50;;
24157;SDS011;12316;50.904;4.200;2023-02-15T13:13:28;44.33;;;30.65;;
24157;SDS011;12316;50.904;4.200;2023-02-15T13:15:58;49.00;;;31.38;;
24157;SDS011;12316;50.904;4.200;2023-02-15T13:18:35;45.40;;;30.40;;
24157;SDS011;12316;50.904;4.200;2023-02-15T13:21:12;48.28;;;32.05;;
24157;SDS011;12316;50.904;4.200;2023-02-15T13:23:47;52.72;;;32.55;;
24157;SDS011;12316;50.904;4.200;2023-02-15T13:26:18;48.13;;;31.77;;
24157;SDS011;12316;50.904;4.200;2023-02-15T13:28:50;47.13;;;31.15;;
24157;SDS011;12316;50.904;4.200;2023-02-15T13:31:19;45.83;;;30.15;;
24157;SDS011;12316;50.904;4.200;2023-02-15T13:33:51;45.95;;;31.05;;
24157;SDS011;12316;50.904;4.200;2023-02-15T14:01:31;42.88;;;30.23;;
24157;SDS011;12316;50.904;4.200;2023-02-15T14:06:45;44.95;;;30.77;;
24157;SDS011;12316;50.904;4.200;2023-02-15T14:09:30;46.13;;;30.92;;
24157;SDS011;12316;50.904;4.200;2023-02-15T14:24:07;45.25;;;29.67;;
24157;SDS011;12316;50.904;4.200;2023-02-15T14:27:20;44.25;;;28.85;;
24157;SDS011;12316;50.904;4.200;2023-02-15T14:32:11;45.65;;;29.73;;
24157;SDS011;12316;50.904;4.200;2023-02-15T14:34:50;43.78;;;29.08;;
24157;SDS011;12316;50.904;4.200;2023-02-15T14:37:21;43.92;;;29.83;;
24157;SDS011;12316;50.904;4.200;2023-02-15T14:39:58;44.80;;;30.38;;
24157;SDS011;12316;50.904;4.200;2023-02-15T14:42:51;49.67;;;31.63;;
24157;SDS011;12316;50.904;4.200;2023-02-15T14:45:33;46.25;;;30.17;;
24157;SDS011;12316;50.904;4.200;2023-02-15T14:48:10;49.05;;;32.15;;
24157;SDS011;12316;50.904;4.200;2023-02-15T14:50:43;49.30;;;31.83;;
24157;SDS011;12316;50.904;4.200;2023-02-15T14:53:32;52.17;;;32.60;;
24157;SDS011;12316;50.904;4.200;2023-02-15T15:01:14;48.20;;;30.40;;
24157;SDS011;12316;50.904;4.200;2023-02-15T15:03:47;47.63;;;31.45;;
24157;SDS011;12316;50.904;4.200;2023-02-15T15:06:31;44.45;;;30.05;;
24157;SDS011;12316;50.904;4.200;2023-02-15T15:09:00;47.78;;;30.88;;
24157;SDS011;12316;50.904;4.200;2023-02-15T15:11:42;45.95;;;30.67;;
24157;SDS011;12316;50.904;4.200;2023-02-15T15:14:10;40.15;;;27.52;;
24157;SDS011;12316;50.904;4.200;2023-02-15T15:16:56;42.97;;;28.67;;
24157;SDS011;12316;50.904;4.200;2023-02-15T15:22:19;41.15;;;28.65;;
24157;SDS011;12316;50.904;4.200;2023-02-15T15:30:01;42.58;;;28.30;;
24157;SDS011;12316;50.904;4.200;2023-02-15T15:32:28;42.58;;;29.08;;
24157;SDS011;12316;50.904;4.200;2023-02-15T15:40:25;41.72;;;29.10;;
24157;SDS011;12316;50.904;4.200;2023-02-15T15:46:06;44.42;;;29.35;;
24157;SDS011;12316;50.904;4.200;2023-02-15T15:48:57;44.75;;;29.55;;
24157;SDS011;12316;50.904;4.200;2023-02-15T15:51:33;44.55;;;29.27;;
24157;SDS011;12316;50.904;4.200;2023-02-15T15:53:59;45.80;;;30.33;;
24157;SDS011;12316;50.904;4.200;2023-02-15T15:56:36;40.45;;;28.80;;
24157;SDS011;12316;50.904;4.200;2023-02-15T15:59:04;44.15;;;29.52;;
24157;SDS011;12316;50.904;4.200;2023-02-15T16:01:42;43.55;;;29.60;;
24157;SDS011;12316;50.904;4.200;2023-02-15T16:04:13;47.08;;;28.88;;
24157;SDS011;12316;50.904;4.200;2023-02-15T16:06:49;43.58;;;29.13;;
24157;SDS011;12316;50.904;4.200;2023-02-15T16:11:49;46.53;;;30.35;;
24157;SDS011;12316;50.904;4.200;2023-02-15T16:14:21;43.57;;;29.73;;
24157;SDS011;12316;50.904;4.200;2023-02-15T16:17:03;44.33;;;30.70;;
24157;SDS011;12316;50.904;4.200;2023-02-15T16:19:35;46.70;;;31.48;;
24157;SDS011;12316;50.904;4.200;2023-02-15T16:27:41;55.95;;;33.45;;
24157;SDS011;12316;50.904;4.200;2023-02-15T16:30:21;51.38;;;33.80;;
24157;SDS011;12316;50.904;4.200;2023-02-15T16:32:53;52.45;;;33.25;;
24157;SDS011;12316;50.904;4.200;2023-02-15T16:36:01;46.88;;;32.67;;
24157;SDS011;12316;50.904;4.200;2023-02-15T16:41:20;51.25;;;33.25;;
24157;SDS011;12316;50.904;4.200;2023-02-15T16:43:52;50.70;;;32.92;;
24157;SDS011;12316;50.904;4.200;2023-02-15T16:46:32;51.30;;;34.03;;
24157;SDS011;12316;50.904;4.200;2023-02-15T16:49:04;49.78;;;33.13;;
24157;SDS011;12316;50.904;4.200;2023-02-15T16:52:10;49.05;;;33.08;;
24157;SDS011;12316;50.904;4.200;2023-02-15T16:54:41;49.35;;;33.13;;
24157;SDS011;12316;50.904;4.200;2023-02-15T16:57:15;52.58;;;35.92;;
24157;SDS011;12316;50.904;4.200;2023-02-15T16:59:45;54.95;;;36.20;;
24157;SDS011;12316;50.904;4.200;2023-02-15T17:02:17;53.30;;;36.03;;
24157;SDS011;12316;50.904;4.200;2023-02-15T17:04:45;60.00;;;37.03;;
24157;SDS011;12316;50.904;4.200;2023-02-15T17:07:25;54.90;;;35.38;;
24157;SDS011;12316;50.904;4.200;2023-02-15T17:09:52;55.15;;;34.53;;
24157;SDS011;12316;50.904;4.200;2023-02-15T17:15:33;53.70;;;34.65;;
24157;SDS011;12316;50.904;4.200;2023-02-15T17:20:44;53.63;;;34.67;;
24157;SDS011;12316;50.904;4.200;2023-02-15T17:26:13;57.03;;;35.28;;
24157;SDS011;12316;50.904;4.200;2023-02-15T17:28:50;56.17;;;35.75;;
24157;SDS011;12316;50.904;4.200;2023-02-15T17:31:18;56.65;;;35.78;;
24157;SDS011;12316;50.904;4.200;2023-02-15T17:33:45;59.72;;;35.80;;
24157;SDS011;12316;50.904;4.200;2023-02-15T17:41:24;56.13;;;35.63;;
24157;SDS011;12316;50.904;4.200;2023-02-15T17:44:00;53.90;;;35.47;;
24157;SDS011;12316;50.904;4.200;2023-02-15T17:46:28;54.05;;;35.17;;
24157;SDS011;12316;50.904;4.200;2023-02-15T17:48:59;51.92;;;34.55;;
24157;SDS011;12316;50.904;4.200;2023-02-15T17:51:25;55.75;;;34.70;;
24157;SDS011;12316;50.904;4.200;2023-02-15T17:53:52;51.97;;;35.00;;
24157;SDS011;12316;50.904;4.200;2023-02-15T17:56:36;56.00;;;34.58;;
24157;SDS011;12316;50.904;4.200;2023-02-15T17:59:02;50.55;;;33.58;;
24157;SDS011;12316;50.904;4.200;2023-02-15T18:01:32;55.03;;;35.13;;
24157;SDS011;12316;50.904;4.200;2023-02-15T18:04:17;54.72;;;35.22;;
24157;SDS011;12316;50.904;4.200;2023-02-15T18:07:02;51.25;;;33.67;;
24157;SDS011;12316;50.904;4.200;2023-02-15T18:09:47;53.97;;;36.10;;
24157;SDS011;12316;50.904;4.200;2023-02-15T18:12:32;54.95;;;35.03;;